Time;durP1;ratioP1;P1;durP2;ratioP2;P2;SDS_P1;SDS_P2;PMS_P1;PMS_P2;Temp;Humidity;BMP_temperature;BMP_pressure;BME280_temperature;BME280_humidity;BME280_pressure;Samples;Min_cycle;Max_cycle;Signal;HPM_P1;HPM_P2
2021/12/07 00:00:57;;;;;;;0.00;0.00;;;;;19.00;101056.00;;;;5066531;28;20815;-73
2021/12/07 00:03:26;;;;;;;0.00;0.00;;;;;19.10;101050.00;;;;5065999;28;20052;-72
2021/12/07 00:05:57;;;;;;;0.00;0.00;;;;;19.10;101071.00;;;;5064671;28;20162;-74
2021/12/07 00:08:28;;;;;;;0.00;0.00;;;;;19.00;101077.00;;;;5064456;28;20579;-75
2021/12/07 00:10:58;;;;;;;0.43;0.10;;;;;19.00;101085.00;;;;5064602;28;20036;-74
2021/12/07 00:13:32;;;;;;;0.00;0.00;;;;;19.10;101092.00;;;;5069958;28;20091;-76
2021/12/07 00:16:08;;;;;;;0.00;0.00;;;;;19.00;101088.00;;;;5070467;28;20465;-75
2021/12/07 00:18:39;;;;;;;0.77;0.45;;;;;19.00;101080.00;;;;5070899;28;20049;-74
2021/12/07 00:21:09;;;;;;;1.08;0.45;;;;;18.90;101088.00;;;;5089052;28;20051;-74
2021/12/07 00:23:38;;;;;;;0.00;0.00;;;;;18.90;101107.00;;;;5089834;28;20043;-72
2021/12/07 00:26:15;;;;;;;0.00;0.00;;;;;18.90;101107.00;;;;5087122;28;20036;-74
2021/12/07 00:28:46;;;;;;;0.20;0.20;;;;;18.80;101100.00;;;;5089519;28;20047;-74
2021/12/07 00:31:30;;;;;;;0.80;0.25;;;;;18.90;101105.00;;;;5086492;28;20415;-73
2021/12/07 00:34:13;;;;;;;0.00;0.00;;;;;18.90;101075.00;;;;5086388;28;20070;-73
2021/12/07 00:36:46;;;;;;;0.43;0.20;;;;;18.90;101091.00;;;;5087647;28;20046;-73
2021/12/07 00:39:22;;;;;;;0.03;0.00;;;;;19.00;101107.00;;;;5087123;28;20047;-74
2021/12/07 00:41:54;;;;;;;0.65;0.30;;;;;18.90;101115.00;;;;5088533;28;20047;-73
2021/12/07 00:44:24;;;;;;;0.68;0.20;;;;;19.00;101110.00;;;;5089380;28;20040;-74
2021/12/07 00:46:55;;;;;;;1.45;0.20;;;;;18.90;101095.00;;;;5085876;28;20086;-72
2021/12/07 00:49:25;;;;;;;3.17;1.60;;;;;18.80;101092.00;;;;5089487;28;20044;-74
2021/12/07 00:51:54;;;;;;;0.00;0.00;;;;;18.60;101117.00;;;;5086428;28;20059;-74
2021/12/07 00:54:24;;;;;;;0.00;0.00;;;;;18.50;101090.00;;;;5086116;28;20071;-74
2021/12/07 00:56:54;;;;;;;0.00;0.00;;;;;18.50;101086.00;;;;5087944;28;20050;-75
2021/12/07 00:59:25;;;;;;;0.00;0.00;;;;;18.40;101121.00;;;;5071221;28;20146;-74
2021/12/07 01:01:56;;;;;;;0.68;0.43;;;;;18.40;101114.00;;;;5113243;27;20051;-73
2021/12/07 01:04:28;;;;;;;;;;;;;18.40;101116.00;;;;5085917;28;20047;-74
2021/12/07 01:07:05;;;;;;;0.00;0.00;;;;;18.30;101094.00;;;;5086805;28;20369;-75
2021/12/07 01:24:39;;;;;;;0.00;0.00;;;;;18.30;101114.00;;;;5087623;28;20051;-74
2021/12/07 01:26:31;;;;;;;0.00;0.00;;;;;18.20;101108.00;;;;5088075;28;20043;-77
2021/12/07 01:29:00;;;;;;;0.10;0.10;;;;;18.30;101121.00;;;;5087945;28;20044;-73
2021/12/07 01:31:40;;;;;;;0.80;0.70;;;;;18.20;101114.00;;;;5086645;28;20048;-73
2021/12/07 01:35:15;;;;;;;3.00;0.30;;;;;18.30;101107.00;;;;5088114;28;20534;-73
2021/12/07 01:40:19;;;;;;;14.00;0.70;;;;;18.30;101110.00;;;;5087631;28;20115;-74
2021/12/07 02:01:11;;;;;;;0.43;0.20;;;;;18.30;101116.00;;;;5087074;28;20067;-73
2021/12/07 02:03:41;;;;;;;0.10;0.10;;;;;18.40;101094.00;;;;5087484;28;20052;-75
2021/12/07 02:06:12;;;;;;;0.08;0.00;;;;;18.40;101108.00;;;;5070998;28;20060;-72
2021/12/07 02:08:43;;;;;;;4.18;0.30;;;;;18.40;101099.00;;;;5086565;28;20090;-74
2021/12/07 02:11:14;;;;;;;0.60;0.30;;;;;18.40;101078.00;;;;5086564;28;20055;-71
2021/12/07 02:14:16;;;;;;;0.00;0.00;;;;;18.40;101102.00;;;;5087109;28;20202;-72
2021/12/07 02:16:33;;;;;;;0.28;0.03;;;;;18.40;101100.00;;;;5086112;28;20535;-71
2021/12/07 02:19:03;;;;;;;0.43;0.03;;;;;18.30;101079.00;;;;5087107;28;20100;-71
2021/12/07 02:21:33;;;;;;;0.60;0.30;;;;;18.30;101105.00;;;;5086729;28;20081;-74
2021/12/07 02:24:11;;;;;;;0.00;0.00;;;;;18.20;101091.00;;;;5086494;28;20071;-72
2021/12/07 02:26:42;;;;;;;0.52;0.00;;;;;18.10;101084.00;;;;5086706;28;20130;-72
2021/12/07 02:29:11;;;;;;;0.00;0.00;;;;;18.10;101090.00;;;;5086713;28;20048;-74
2021/12/07 02:31:42;;;;;;;1.75;0.00;;;;;18.10;101095.00;;;;5086852;28;20058;-76
2021/12/07 02:45:58;;;;;;;0.25;0.20;;;;;18.10;101081.00;;;;5124416;27;21052;-74
2021/12/07 02:48:29;;;;;;;0.05;0.05;;;;;18.10;101086.00;;;;5122937;28;20088;-75
2021/12/07 02:51:01;;;;;;;0.80;0.22;;;;;18.10;101059.00;;;;5123199;28;20043;-77
2021/12/07 02:53:34;;;;;;;0.00;0.00;;;;;18.10;101067.00;;;;5123946;27;20841;-77
2021/12/07 02:56:07;;;;;;;0.00;0.00;;;;;18.10;101078.00;;;;5122121;28;20039;-77
2021/12/07 02:58:42;;;;;;;2.55;0.35;;;;;18.20;101086.00;;;;5122831;28;20137;-73
2021/12/07 03:01:21;;;;;;;0.00;0.00;;;;;18.10;101074.00;;;;5122548;28;20070;-74
2021/12/07 03:07:20;;;;;;;0.20;0.10;;;;;18.00;101078.00;;;;5122649;28;20051;-75
2021/12/07 03:26:09;;;;;;;0.00;0.00;;;;;17.70;101080.00;;;;5121667;28;20048;-74
2021/12/07 03:28:46;;;;;;;0.00;0.00;;;;;17.70;101070.00;;;;5121858;28;20767;-73
2021/12/07 03:31:20;;;;;;;0.98;0.45;;;;;17.60;101065.00;;;;5124154;27;20401;-76
2021/12/07 03:33:49;;;;;;;0.47;0.08;;;;;17.60;101070.00;;;;5122516;28;20079;-74
2021/12/07 03:36:21;;;;;;;0.47;0.45;;;;;17.60;101072.00;;;;5122184;28;20047;-76
2021/12/07 03:38:51;;;;;;;;;;;;;17.50;101071.00;;;;5121803;28;20138;-75
2021/12/07 03:41:21;;;;;;;0.00;0.00;;;;;17.50;101073.00;;;;5104813;28;19923;-76
2021/12/07 03:43:51;;;;;;;0.75;0.75;;;;;17.50;101068.00;;;;5121171;28;20146;-75
2021/12/07 03:46:20;;;;;;;0.00;0.00;;;;;17.60;101056.00;;;;5111830;28;20526;-74
2021/12/07 03:48:51;;;;;;;0.00;0.00;;;;;17.70;101055.00;;;;5107793;28;20071;-75
2021/12/07 03:51:20;;;;;;;0.00;0.00;;;;;17.70;101055.00;;;;5108355;28;20478;-74
2021/12/07 03:53:50;;;;;;;4.88;0.30;;;;;17.70;101048.00;;;;5107341;28;20052;-76
2021/12/07 03:56:20;;;;;;;0.00;0.00;;;;;17.70;101038.00;;;;5108003;28;20081;-77
2021/12/07 03:58:49;;;;;;;1.75;0.22;;;;;17.60;101053.00;;;;5109341;28;20100;-76
2021/12/07 04:01:23;;;;;;;12.65;0.68;;;;;17.60;101034.00;;;;5107986;28;20058;-76
2021/12/07 04:03:56;;;;;;;298.52;53.90;;;;;17.60;101051.00;;;;5107999;28;20055;-76
2021/12/07 04:06:27;;;;;;;0.52;0.17;;;;;17.60;101045.00;;;;5107472;28;20054;-74
2021/12/07 04:08:56;;;;;;;0.00;0.00;;;;;17.60;101039.00;;;;5108598;28;20541;-76
2021/12/07 04:11:26;;;;;;;0.00;0.00;;;;;17.50;101051.00;;;;5107410;28;20154;-74
2021/12/07 04:13:55;;;;;;;0.55;0.15;;;;;17.40;101035.00;;;;5108582;28;20043;-75
2021/12/07 04:16:28;;;;;;;0.00;0.00;;;;;17.30;101030.00;;;;5106847;28;20092;-74
2021/12/07 04:18:59;;;;;;;0.52;0.38;;;;;17.40;101043.00;;;;5107223;28;20043;-78
2021/12/07 04:21:30;;;;;;;3.97;0.85;;;;;17.40;101034.00;;;;5107584;28;20510;-75
2021/12/07 04:23:59;;;;;;;0.28;0.00;;;;;17.40;101027.00;;;;5107173;28;20048;-74
2021/12/07 04:26:31;;;;;;;0.00;0.00;;;;;17.30;101011.00;;;;5109187;28;20047;-74
2021/12/07 04:29:00;;;;;;;0.03;0.00;;;;;17.30;101013.00;;;;5108713;28;20529;-74
2021/12/07 04:31:30;;;;;;;0.00;0.00;;;;;17.40;101023.00;;;;5106532;28;20047;-77
2021/12/07 04:34:00;;;;;;;5.72;0.10;;;;;17.30;101025.00;;;;5108772;28;20047;-75
2021/12/07 04:36:29;;;;;;;0.00;0.00;;;;;17.30;101026.00;;;;5107421;28;20073;-76
2021/12/07 04:38:59;;;;;;;0.00;0.00;;;;;17.30;101015.00;;;;5107019;28;20100;-72
2021/12/07 04:41:32;;;;;;;0.52;0.20;;;;;17.20;101011.00;;;;5108032;28;20044;-77
2021/12/07 04:44:04;;;;;;;0.10;0.10;;;;;17.30;101015.00;;;;5107914;28;20152;-77
2021/12/07 04:46:40;;;;;;;;;;;;;17.20;101028.00;;;;5108475;28;20067;-75
2021/12/07 04:57:44;;;;;;;0.30;0.05;;;;;17.20;101009.00;;;;5107150;28;20044;-75
2021/12/07 05:00:22;;;;;;;0.00;0.00;;;;;17.20;101025.00;;;;5106031;28;20123;-75
2021/12/07 05:03:03;;;;;;;0.00;0.00;;;;;17.20;101020.00;;;;5106368;28;20073;-74
2021/12/07 05:05:39;;;;;;;1.58;0.47;;;;;17.40;101008.00;;;;5107566;28;20039;-77
2021/12/07 05:08:12;;;;;;;0.00;0.00;;;;;17.40;101013.00;;;;5108185;28;20075;-76
2021/12/07 05:14:15;;;;;;;0.30;0.30;;;;;17.30;100995.00;;;;5107995;28;20063;-75
2021/12/07 05:24:47;;;;;;;0.45;0.20;;;;;17.30;100988.00;;;;5107489;28;20078;-74
2021/12/07 05:38:37;;;;;;;0.00;0.00;;;;;17.20;101005.00;;;;5106690;28;20395;-75
2021/12/07 05:41:08;;;;;;;1.25;0.40;;;;;17.30;101013.00;;;;5107572;28;20894;-75
2021/12/07 05:43:38;;;;;;;0.00;0.00;;;;;17.30;101001.00;;;;5107836;28;20147;-76
2021/12/07 05:46:07;;;;;;;0.00;0.00;;;;;17.30;101009.00;;;;5106056;28;20051;-75
2021/12/07 05:48:38;;;;;;;0.20;0.10;;;;;17.30;101005.00;;;;5107391;28;20044;-74
2021/12/07 05:51:07;;;;;;;0.00;0.00;;;;;17.30;100991.00;;;;5107710;28;20039;-74
2021/12/07 05:53:36;;;;;;;5.30;0.75;;;;;17.40;100998.00;;;;5107354;28;20069;-75
2021/12/07 05:56:06;;;;;;;0.00;0.00;;;;;17.40;100993.00;;;;5106897;28;20452;-74
2021/12/07 05:58:35;;;;;;;0.00;0.00;;;;;17.50;100994.00;;;;5107447;28;20319;-73
2021/12/07 06:01:05;;;;;;;0.65;0.10;;;;;17.40;101002.00;;;;5107117;28;20081;-75
2021/12/07 06:03:34;;;;;;;0.00;0.00;;;;;17.40;101003.00;;;;5106079;28;20130;-74
2021/12/07 06:06:04;;;;;;;0.00;0.00;;;;;17.50;100993.00;;;;5105486;28;20040;-74
2021/12/07 06:08:34;;;;;;;0.00;0.00;;;;;17.40;100990.00;;;;5106874;28;20047;-75
2021/12/07 06:11:03;;;;;;;0.00;0.00;;;;;17.30;100998.00;;;;5105479;28;20047;-74
2021/12/07 06:13:33;;;;;;;1.13;0.17;;;;;17.20;100989.00;;;;5107311;28;20608;-74
2021/12/07 06:16:06;;;;;;;0.08;0.00;;;;;17.30;101019.00;;;;5105610;28;20520;-75
2021/12/07 06:18:37;;;;;;;3.03;0.32;;;;;17.20;101003.00;;;;5106511;28;20071;-75
2021/12/07 06:21:07;;;;;;;0.10;0.10;;;;;17.40;101015.00;;;;5106504;28;20051;-74
2021/12/07 06:23:36;;;;;;;0.00;0.00;;;;;17.40;101006.00;;;;5106740;28;20044;-72
2021/12/07 06:26:06;;;;;;;0.00;0.00;;;;;17.40;101000.00;;;;5106438;28;20040;-75
2021/12/07 06:28:35;;;;;;;0.75;0.20;;;;;17.30;100990.00;;;;5105582;28;20097;-74
2021/12/07 06:31:05;;;;;;;0.05;0.05;;;;;17.40;101004.00;;;;5106681;28;20053;-75
2021/12/07 06:33:34;;;;;;;0.00;0.00;;;;;17.40;101007.00;;;;5106544;28;20483;-74
2021/12/07 06:36:06;;;;;;;0.00;0.00;;;;;17.30;101001.00;;;;5105206;28;20490;-75
2021/12/07 06:38:36;;;;;;;0.00;0.00;;;;;17.20;101025.00;;;;5105129;28;20486;-75
2021/12/07 06:41:05;;;;;;;0.00;0.00;;;;;17.10;100986.00;;;;5106845;28;20069;-74
2021/12/07 06:43:35;;;;;;;0.85;0.43;;;;;17.00;101010.00;;;;5106504;28;20054;-75
2021/12/07 06:46:05;;;;;;;2.15;0.20;;;;;17.00;101011.00;;;;5106441;28;20062;-74
2021/12/07 06:48:35;;;;;;;0.45;0.15;;;;;17.00;101011.00;;;;5106636;28;20043;-75
2021/12/07 06:51:04;;;;;;;0.10;0.10;;;;;17.00;101012.00;;;;5106574;28;20100;-74
2021/12/07 06:53:36;;;;;;;0.10;0.10;;;;;17.10;101010.00;;;;5106376;28;20040;-73
2021/12/07 06:56:08;;;;;;;0.00;0.00;;;;;17.20;101025.00;;;;5106365;28;20467;-75
2021/12/07 06:58:38;;;;;;;0.00;0.00;;;;;17.20;101018.00;;;;5106414;28;20044;-75
2021/12/07 07:01:11;;;;;;;0.10;0.00;;;;;17.30;101021.00;;;;5106114;28;20073;-73
2021/12/07 07:03:42;;;;;;;0.00;0.00;;;;;17.30;101006.00;;;;5106166;28;20596;-75
2021/12/07 07:06:12;;;;;;;0.32;0.10;;;;;17.20;101016.00;;;;5106684;28;20062;-74
2021/12/07 07:08:41;;;;;;;4.95;0.10;;;;;17.20;100998.00;;;;5106394;28;20052;-74
2021/12/07 07:11:11;;;;;;;0.00;0.00;;;;;17.10;101008.00;;;;5106004;28;20035;-74
2021/12/07 07:13:48;;;;;;;0.20;0.10;;;;;17.10;101020.00;;;;5104640;28;20047;-74
2021/12/07 07:16:17;;;;;;;0.00;0.00;;;;;16.90;101020.00;;;;5105228;28;20387;-75
2021/12/07 07:18:47;;;;;;;0.00;0.00;;;;;16.90;101006.00;;;;5106471;28;20126;-75
2021/12/07 07:21:17;;;;;;;0.00;0.00;;;;;16.80;101013.00;;;;5107135;28;20058;-75
2021/12/07 07:23:47;;;;;;;0.10;0.08;;;;;16.90;101033.00;;;;5110383;28;20046;-74
2021/12/07 07:26:16;;;;;;;0.10;0.00;;;;;16.90;101031.00;;;;5109722;28;20093;-72
2021/12/07 07:28:46;;;;;;;0.00;0.00;;;;;16.80;101017.00;;;;5110085;28;20067;-73
2021/12/07 07:31:16;;;;;;;1.70;0.80;;;;;16.70;101011.00;;;;5108411;28;20474;-73
2021/12/07 07:33:45;;;;;;;0.00;0.00;;;;;16.70;101039.00;;;;5110180;28;20116;-75
2021/12/07 07:36:14;;;;;;;0.00;0.00;;;;;16.60;101050.00;;;;5109542;28;20044;-76
2021/12/07 07:38:44;;;;;;;0.00;0.00;;;;;16.60;101030.00;;;;5109528;27;20046;-76
2021/12/07 07:41:13;;;;;;;0.00;0.00;;;;;16.60;101032.00;;;;5108681;28;20055;-74
2021/12/07 07:43:43;;;;;;;0.00;0.00;;;;;16.50;101041.00;;;;5109756;28;20734;-75
2021/12/07 07:46:16;;;;;;;0.00;0.00;;;;;16.50;101053.00;;;;5108127;28;20514;-75
2021/12/07 07:48:47;;;;;;;;;;;;;16.60;101058.00;;;;5092427;28;20578;-75
2021/12/07 07:51:16;;;;;;;0.55;0.55;;;;;16.70;101079.00;;;;5109391;27;19924;-76
2021/12/07 07:53:46;;;;;;;0.00;0.00;;;;;16.50;101071.00;;;;5108785;28;20054;-75
2021/12/07 07:56:16;;;;;;;1.20;0.55;;;;;16.30;101063.00;;;;5108037;28;20055;-75
2021/12/07 07:58:46;;;;;;;0.00;0.00;;;;;16.20;101069.00;;;;5110198;28;20084;-75
2021/12/07 08:01:16;;;;;;;0.00;0.00;;;;;16.10;101093.00;;;;5109523;28;20035;-76
2021/12/07 08:03:45;;;;;;;0.00;0.00;;;;;16.10;101089.00;;;;5109388;28;20039;-75
2021/12/07 08:06:14;;;;;;;0.00;0.00;;;;;16.10;101107.00;;;;5109807;28;20379;-75
2021/12/07 08:08:44;;;;;;;0.00;0.00;;;;;16.00;101100.00;;;;5109233;28;20085;-76
2021/12/07 08:11:15;;;;;;;0.00;0.00;;;;;16.00;101106.00;;;;5109284;28;20039;-75
2021/12/07 08:13:55;;;;;;;0.13;0.13;;;;;16.10;101111.00;;;;5109427;28;20045;-75
2021/12/07 08:16:26;;;;;;;0.20;0.20;;;;;16.10;101090.00;;;;5107134;28;20101;-75
2021/12/07 08:18:56;;;;;;;0.10;0.10;;;;;16.10;101095.00;;;;5108830;28;20079;-75
2021/12/07 08:21:29;;;;;;;0.00;0.00;;;;;16.10;101101.00;;;;5107845;28;20046;-74
2021/12/07 08:23:58;;;;;;;0.00;0.00;;;;;16.10;101102.00;;;;5107747;28;20418;-73
2021/12/07 08:26:28;;;;;;;0.00;0.00;;;;;16.00;101111.00;;;;5107392;28;20032;-76
2021/12/07 08:28:58;;;;;;;8.30;1.55;;;;;16.10;101119.00;;;;5108055;28;20435;-75
2021/12/07 08:31:29;;;;;;;0.00;0.00;;;;;16.00;101117.00;;;;5109573;28;20058;-75
2021/12/07 08:34:00;;;;;;;0.00;0.00;;;;;15.90;101114.00;;;;5109064;28;20040;-75
2021/12/07 08:36:30;;;;;;;0.00;0.00;;;;;15.80;101109.00;;;;5108248;28;20068;-74
2021/12/07 08:39:00;;;;;;;0.00;0.00;;;;;16.00;101107.00;;;;5108418;28;20036;-75
2021/12/07 08:41:30;;;;;;;0.00;0.00;;;;;16.00;101105.00;;;;5108451;28;20734;-75
2021/12/07 08:44:00;;;;;;;0.00;0.00;;;;;15.90;101129.00;;;;5107971;28;20297;-75
2021/12/07 08:46:30;;;;;;;0.00;0.00;;;;;15.90;101120.00;;;;5108746;28;20486;-75
2021/12/07 08:49:02;;;;;;;0.00;0.00;;;;;15.90;101121.00;;;;5108494;28;20036;-75
2021/12/07 08:51:33;;;;;;;0.00;0.00;;;;;15.90;101144.00;;;;5107856;28;20054;-75
2021/12/07 08:59:55;;;;;;;0.00;0.00;;;;;16.00;101146.00;;;;5105973;28;20052;-75
2021/12/07 09:02:27;;;;;;;0.00;0.00;;;;;16.10;101147.00;;;;5108333;28;20073;-75
2021/12/07 09:04:57;;;;;;;0.00;0.00;;;;;16.20;101148.00;;;;5102603;28;20043;-75
2021/12/07 09:07:26;;;;;;;0.00;0.00;;;;;16.20;101133.00;;;;5088269;28;20055;-75
2021/12/07 09:09:56;;;;;;;0.00;0.00;;;;;16.30;101157.00;;;;5087833;28;20468;-75
2021/12/07 09:12:25;;;;;;;0.00;0.00;;;;;16.40;101156.00;;;;5087965;28;20055;-75
2021/12/07 09:14:55;;;;;;;0.00;0.00;;;;;16.50;101157.00;;;;5087420;28;20036;-75
2021/12/07 09:17:24;;;;;;;0.98;0.38;;;;;16.80;101160.00;;;;5088160;28;20097;-74
2021/12/07 09:19:53;;;;;;;0.00;0.00;;;;;16.70;101146.00;;;;5086703;28;20524;-75
2021/12/07 09:22:25;;;;;;;0.00;0.00;;;;;16.90;101145.00;;;;5086825;28;20422;-75
2021/12/07 09:24:55;;;;;;;0.00;0.00;;;;;17.10;101152.00;;;;5087578;28;20503;-75
2021/12/07 09:27:25;;;;;;;0.00;0.00;;;;;17.40;101145.00;;;;5087303;28;20040;-75
2021/12/07 09:29:54;;;;;;;0.35;0.30;;;;;17.50;101169.00;;;;5087184;28;20089;-75
2021/12/07 09:32:23;;;;;;;6.43;0.90;;;;;17.70;101159.00;;;;5087570;28;20447;-75
2021/12/07 09:34:52;;;;;;;0.10;0.05;;;;;17.60;101169.00;;;;5085041;28;20056;-75
2021/12/07 09:37:22;;;;;;;0.00;0.00;;;;;17.70;101165.00;;;;5087744;28;20539;-75
2021/12/07 09:39:51;;;;;;;0.00;0.00;;;;;18.20;101141.00;;;;5086434;28;20044;-75
2021/12/07 09:42:21;;;;;;;1.55;0.20;;;;;18.50;101164.00;;;;5108276;27;20092;-75
2021/12/07 09:44:53;;;;;;;0.00;0.00;;;;;18.30;101153.00;;;;5124327;27;20128;-75
2021/12/07 09:47:24;;;;;;;0.00;0.00;;;;;18.10;101154.00;;;;5127587;27;20466;-74
2021/12/07 09:49:54;;;;;;;0.00;0.00;;;;;18.20;101152.00;;;;5128052;27;20517;-75
2021/12/07 09:52:24;;;;;;;0.00;0.00;;;;;18.50;101147.00;;;;5127790;27;20447;-77
2021/12/07 09:54:54;;;;;;;0.10;0.00;;;;;18.90;101163.00;;;;5127689;27;20035;-76
2021/12/07 09:57:24;;;;;;;0.00;0.00;;;;;18.60;101173.00;;;;5127913;27;20039;-75
2021/12/07 09:59:54;;;;;;;0.00;0.00;;;;;18.70;101164.00;;;;5115972;27;20034;-75
2021/12/07 10:02:23;;;;;;;0.10;0.05;;;;;18.70;101160.00;;;;5116209;27;20047;-76
2021/12/07 10:04:53;;;;;;;0.00;0.00;;;;;18.70;101155.00;;;;5124137;27;20089;-75
2021/12/07 10:07:22;;;;;;;0.00;0.00;;;;;18.90;101173.00;;;;5106901;28;20410;-74
2021/12/07 10:09:52;;;;;;;0.00;0.00;;;;;19.30;101171.00;;;;5107088;28;20069;-75
2021/12/07 10:12:23;;;;;;;0.00;0.00;;;;;19.40;101160.00;;;;5106361;28;20043;-75
2021/12/07 10:14:52;;;;;;;;;;;;;20.60;101148.00;;;;5107111;28;20032;-75
2021/12/07 10:17:24;;;;;;;0.00;0.00;;;;;20.10;101162.00;;;;5106637;28;19953;-76
2021/12/07 10:19:54;;;;;;;0.00;0.00;;;;;19.90;101167.00;;;;5106437;28;20032;-75
2021/12/07 10:22:24;;;;;;;0.00;0.00;;;;;19.90;101175.00;;;;5114761;27;20047;-75
2021/12/07 10:24:55;;;;;;;0.00;0.00;;;;;20.00;101178.00;;;;5118291;27;20039;-76
2021/12/07 10:27:38;;;;;;;0.00;0.00;;;;;21.80;101122.00;;;;5086296;28;20387;-75
2021/12/07 10:30:19;;;;;;;1.35;1.20;;;;;22.20;101176.00;;;;5084568;28;20422;-75
2021/12/07 10:33:06;;;;;;;0.00;0.00;;;;;21.70;101174.00;;;;5085317;28;20047;-76
2021/12/07 10:35:37;;;;;;;0.00;0.00;;;;;21.30;101195.00;;;;5084846;28;20052;-75
2021/12/07 10:38:14;;;;;;;0.00;0.00;;;;;21.00;101187.00;;;;5086670;28;20123;-76
2021/12/07 10:41:03;;;;;;;0.00;0.00;;;;;21.30;101190.00;;;;5086008;28;20054;-74
2021/12/07 10:43:49;;;;;;;1.17;0.28;;;;;21.20;101203.00;;;;5084660;28;20040;-73
2021/12/07 10:46:32;;;;;;;0.00;0.00;;;;;21.30;101214.00;;;;5086060;28;20127;-75
2021/12/07 10:49:14;;;;;;;1.85;1.65;;;;;21.40;101190.00;;;;5086158;28;20039;-74
2021/12/07 10:52:11;;;;;;;0.00;0.00;;;;;21.70;101188.00;;;;5085963;28;20526;-76
2021/12/07 10:54:58;;;;;;;1.00;1.00;;;;;23.70;101101.00;;;;5085249;28;20071;-76
2021/12/07 10:57:41;;;;;;;0.32;0.25;;;;;30.00;100980.00;;;;5089725;28;20044;-75
2021/12/07 11:00:27;;;;;;;0.17;0.17;;;;;32.10;100992.00;;;;5089707;28;20047;-74
2021/12/07 11:03:07;;;;;;;0.00;0.00;;;;;32.70;100996.00;;;;5089878;28;20046;-73
2021/12/07 11:05:43;;;;;;;0.40;0.17;;;;;32.90;100995.00;;;;5090924;28;20044;-74
2021/12/07 11:08:14;;;;;;;0.00;0.00;;;;;33.20;100992.00;;;;5089817;28;20143;-74
2021/12/07 11:10:48;;;;;;;0.00;0.00;;;;;33.70;100993.00;;;;5090041;28;20123;-75
2021/12/07 11:13:33;;;;;;;0.00;0.00;;;;;33.40;100991.00;;;;5087647;28;20514;-73
2021/12/07 11:16:10;;;;;;;1.20;0.55;;;;;33.40;101003.00;;;;5089823;28;20601;-75
2021/12/07 11:18:44;;;;;;;0.00;0.00;;;;;32.00;100998.00;;;;5088801;28;20399;-74
2021/12/07 11:21:19;;;;;;;0.10;0.00;;;;;32.60;100995.00;;;;5089913;28;20044;-73
2021/12/07 11:23:53;;;;;;;0.35;0.00;;;;;32.20;100997.00;;;;5089070;28;20055;-75
2021/12/07 11:31:48;;;;;;;;;;;;;31.30;101002.00;;;;5090699;28;20048;-74
2021/12/07 11:34:21;;;;;;;0.47;0.22;;;;;31.00;100992.00;;;;5089492;28;19966;-72
2021/12/07 11:36:58;;;;;;;2.03;0.47;;;;;30.60;101028.00;;;;5090040;28;20533;-75
2021/12/07 11:39:47;;;;;;;0.77;0.68;;;;;30.70;101091.00;;;;5105093;28;20146;-72
2021/12/07 11:42:23;;;;;;;0.10;0.10;;;;;29.50;101044.00;;;;5112826;28;20036;-76
2021/12/07 11:44:55;;;;;;;2.25;0.45;;;;;27.50;101052.00;;;;5109304;28;20055;-71
2021/12/07 11:47:49;;;;;;;0.00;0.00;;;;;27.90;101063.00;;;;5110165;28;20032;-74
2021/12/07 11:50:36;;;;;;;0.00;0.00;;;;;27.80;101088.00;;;;5111556;28;20028;-75
2021/12/07 11:53:09;;;;;;;0.00;0.00;;;;;27.20;101169.00;;;;5089064;28;20051;-74
2021/12/07 11:55:42;;;;;;;0.45;0.00;;;;;27.10;101177.00;;;;5087895;28;20089;-71
2021/12/07 11:58:13;;;;;;;0.00;0.00;;;;;25.90;101183.00;;;;5089258;28;20044;-73
2021/12/07 12:00:46;;;;;;;0.00;0.00;;;;;26.10;101174.00;;;;5088802;28;20102;-73
2021/12/07 12:03:18;;;;;;;0.00;0.00;;;;;26.70;101191.00;;;;5088844;28;20085;-74
2021/12/07 12:05:50;;;;;;;0.00;0.00;;;;;26.30;101172.00;;;;5088208;28;20119;-72
2021/12/07 12:08:21;;;;;;;0.00;0.00;;;;;26.30;101170.00;;;;5088607;28;20046;-74
2021/12/07 12:11:27;;;;;;;0.13;0.10;;;;;26.50;101170.00;;;;5088542;28;20067;-75
2021/12/07 12:14:08;;;;;;;0.10;0.00;;;;;25.80;101252.00;;;;5088544;28;20068;-75
2021/12/07 12:16:37;;;;;;;;;;;;;25.60;101166.00;;;;5088962;28;20127;-73
2021/12/07 12:19:34;;;;;;;0.47;0.10;;;;;26.30;101162.00;;;;5089053;28;19924;-75
2021/12/07 12:22:50;;;;;;;0.45;0.10;;;;;26.20;101156.00;;;;5087741;28;20044;-72
2021/12/07 12:25:25;;;;;;;0.00;0.00;;;;;25.70;101233.00;;;;5066654;28;20064;-73
2021/12/07 12:27:57;;;;;;;0.00;0.00;;;;;25.80;101143.00;;;;5088595;28;20442;-74
2021/12/07 12:30:39;;;;;;;0.00;0.00;;;;;26.60;101201.00;;;;5088635;28;20071;-74
2021/12/07 12:33:12;;;;;;;0.98;0.68;;;;;26.30;101186.00;;;;5089083;28;20040;-74
2021/12/07 12:35:49;;;;;;;0.00;0.00;;;;;26.40;101202.00;;;;5088041;28;20048;-73
2021/12/07 12:38:23;;;;;;;0.40;0.22;;;;;25.10;101236.00;;;;5088428;28;20040;-71
2021/12/07 12:40:59;;;;;;;0.00;0.00;;;;;25.80;101181.00;;;;5087981;28;20044;-74
2021/12/07 12:43:41;;;;;;;0.20;0.20;;;;;27.10;101139.00;;;;5088524;28;20130;-74
2021/12/07 12:46:13;;;;;;;0.05;0.05;;;;;26.60;101205.00;;;;5088573;28;20067;-73
2021/12/07 12:48:49;;;;;;;0.52;0.30;;;;;25.80;101203.00;;;;5088866;28;20814;-71
2021/12/07 12:51:28;;;;;;;0.00;0.00;;;;;26.50;101200.00;;;;5087785;28;20071;-69
2021/12/07 12:53:58;;;;;;;0.32;0.10;;;;;25.20;101144.00;;;;5087676;28;20048;-71
2021/12/07 12:56:31;;;;;;;0.00;0.00;;;;;26.70;101190.00;;;;5088225;28;20113;-71
2021/12/07 12:59:10;;;;;;;0.00;0.00;;;;;26.40;101125.00;;;;5088771;28;20403;-73
2021/12/07 13:01:45;;;;;;;0.00;0.00;;;;;27.00;101123.00;;;;5088028;28;20048;-73
2021/12/07 13:04:23;;;;;;;0.00;0.00;;;;;27.40;101153.00;;;;5088244;28;20048;-74
2021/12/07 13:07:24;;;;;;;4.22;0.98;;;;;25.70;101205.00;;;;5088071;28;20567;-70
2021/12/07 13:09:59;;;;;;;0.00;0.00;;;;;26.00;101120.00;;;;5087781;28;20138;-71
2021/12/07 13:12:38;;;;;;;0.00;0.00;;;;;27.60;101129.00;;;;5070368;28;20068;-74
2021/12/07 13:15:16;;;;;;;0.00;0.00;;;;;27.80;101125.00;;;;5088818;28;21050;-72
2021/12/07 13:17:49;;;;;;;0.93;0.40;;;;;27.70;101122.00;;;;5087377;28;20087;-71
2021/12/07 13:20:31;;;;;;;0.00;0.00;;;;;28.50;101128.00;;;;5087331;28;20093;-75
2021/12/07 13:23:07;;;;;;;0.00;0.00;;;;;28.60;101145.00;;;;5086597;28;20445;-76
2021/12/07 13:25:45;;;;;;;0.45;0.28;;;;;28.20;101144.00;;;;5087648;28;20040;-74
2021/12/07 13:28:30;;;;;;;0.38;0.35;;;;;27.80;101121.00;;;;5087236;28;20155;-73
2021/12/07 13:31:15;;;;;;;0.43;0.32;;;;;28.00;101183.00;;;;5087659;28;20115;-76
2021/12/07 13:33:52;;;;;;;0.47;0.30;;;;;26.50;101176.00;;;;5087641;28;20490;-75
2021/12/07 13:36:38;;;;;;;0.00;0.00;;;;;25.50;101152.00;;;;5087525;28;20040;-75
2021/12/07 13:39:18;;;;;;;1.00;0.65;;;;;25.30;101169.00;;;;5087409;28;20044;-76
2021/12/07 13:42:09;;;;;;;0.05;0.05;;;;;26.30;101162.00;;;;5087142;28;20040;-73
2021/12/07 13:44:55;;;;;;;0.03;0.03;;;;;26.00;101160.00;;;;5087194;28;20047;-76
2021/12/07 13:47:43;;;;;;;0.00;0.00;;;;;26.10;101146.00;;;;5087387;28;20127;-76
2021/12/07 13:50:18;;;;;;;0.47;0.30;;;;;25.90;101152.00;;;;5087045;28;20135;-74
2021/12/07 13:52:50;;;;;;;0.00;0.00;;;;;26.40;101081.00;;;;5087152;28;20048;-75
2021/12/07 13:55:29;;;;;;;0.00;0.00;;;;;28.10;101086.00;;;;5087830;28;20044;-73
2021/12/07 13:58:02;;;;;;;0.28;0.25;;;;;27.60;101139.00;;;;5086570;28;20208;-76
2021/12/07 14:00:36;;;;;;;0.00;0.00;;;;;26.80;101150.00;;;;5087658;28;20163;-76
2021/12/07 14:03:12;;;;;;;0.38;0.20;;;;;26.10;101069.00;;;;5085654;28;20087;-73
2021/12/07 14:05:44;;;;;;;0.00;0.00;;;;;26.50;101145.00;;;;5069738;28;20052;-76
2021/12/07 14:08:16;;;;;;;0.00;0.00;;;;;26.00;101127.00;;;;5086552;28;20093;-76
2021/12/07 14:10:48;;;;;;;0.00;0.00;;;;;27.50;101062.00;;;;5085175;28;20055;-75
2021/12/07 14:13:20;;;;;;;0.52;0.30;;;;;28.30;101072.00;;;;5086738;28;20032;-73
2021/12/07 14:16:08;;;;;;;0.00;0.00;;;;;28.10;101061.00;;;;5087150;28;20040;-73
2021/12/07 14:18:38;;;;;;;0.00;0.00;;;;;28.90;101071.00;;;;5086532;28;20105;-73
2021/12/07 14:21:08;;;;;;;0.00;0.00;;;;;29.00;101077.00;;;;5087042;28;20411;-73
2021/12/07 14:23:52;;;;;;;0.00;0.00;;;;;28.80;101093.00;;;;5085513;28;20047;-75
2021/12/07 14:26:24;;;;;;;0.00;0.00;;;;;28.70;101090.00;;;;5086093;28;20040;-78
2021/12/07 14:29:02;;;;;;;0.00;0.00;;;;;28.60;101075.00;;;;5085447;28;20153;-75
2021/12/07 14:31:44;;;;;;;1.05;0.20;;;;;28.70;101071.00;;;;5084624;28;20430;-74